createdAt,value
2023-03-26T00:00:16.320Z,2.42
2023-03-26T00:06:17.711Z,2.37
2023-03-26T00:12:19.101Z,1.65
2023-03-26T00:18:21.539Z,2.60
2023-03-26T00:24:29.353Z,3.13
2023-03-26T00:30:30.877Z,3.72
2023-03-26T00:36:35.690Z,6.47
2023-03-26T00:42:37.977Z,3.67
2023-03-26T00:48:45.458Z,2.85
2023-03-26T00:54:48.356Z,2.80
2023-03-26T01:00:52.118Z,3.50
2023-03-26T01:06:54.315Z,7.90
2023-03-26T01:12:55.961Z,2.80
2023-03-26T01:18:58.777Z,3.00
2023-03-26T01:25:00.275Z,3.00
2023-03-26T01:31:10.370Z,1.95
2023-03-26T01:37:27.092Z,2.50
2023-03-26T01:43:32.397Z,3.53
2023-03-26T01:49:33.850Z,3.47
2023-03-26T01:55:41.941Z,2.33
2023-03-26T02:01:46.161Z,3.15
2023-03-26T02:07:53.743Z,5.00
2023-03-26T02:13:55.314Z,3.03
2023-03-26T02:19:56.860Z,3.85
2023-03-26T02:25:58.349Z,5.27
2023-03-26T02:31:59.868Z,3.45
2023-03-26T02:38:02.172Z,2.73
2023-03-26T02:44:04.486Z,4.00
2023-03-26T02:50:32.566Z,3.65
2023-03-26T02:57:03.390Z,5.70
2023-03-26T03:03:24.324Z,2.78
2023-03-26T03:09:34.835Z,5.17
2023-03-26T03:15:56.024Z,4.03
2023-03-26T03:21:57.729Z,3.78
2023-03-26T03:27:59.353Z,3.50
2023-03-26T03:34:01.742Z,5.95
2023-03-26T03:40:10.675Z,4.00
2023-03-26T03:46:13.440Z,4.68
2023-03-26T03:52:23.050Z,2.40
2023-03-26T03:58:27.984Z,5.30
2023-03-26T04:04:34.302Z,3.70
2023-03-26T04:10:38.502Z,4.07
2023-03-26T04:17:06.171Z,7.05
2023-03-26T04:23:14.090Z,2.78
2023-03-26T04:29:20.705Z,4.57
2023-03-26T04:35:23.599Z,3.78
2023-03-26T04:41:30.158Z,2.87
2023-03-26T04:47:39.585Z,3.28
2023-03-26T04:53:42.503Z,4.38
2023-03-26T05:00:11.910Z,3.03
2023-03-26T05:06:13.609Z,4.15
2023-03-26T05:12:16.536Z,2.33
2023-03-26T05:18:36.927Z,4.55
2023-03-26T05:24:39.105Z,3.15
2023-03-26T05:30:43.300Z,3.63
2023-03-26T05:36:44.918Z,2.63
2023-03-26T05:43:11.620Z,3.23
2023-03-26T05:49:20.146Z,2.72
2023-03-26T05:55:21.933Z,2.65
2023-03-26T06:01:44.764Z,3.30
2023-03-26T06:08:24.388Z,3.38
2023-03-26T06:14:26.611Z,3.03
2023-03-26T06:20:42.006Z,4.63
2023-03-26T06:26:53.151Z,3.90
2023-03-26T06:33:18.243Z,3.37
2023-03-26T06:39:23.875Z,2.97
2023-03-26T06:45:35.595Z,3.43
2023-03-26T06:51:59.763Z,4.85
2023-03-26T06:58:21.382Z,4.10
2023-03-26T07:04:41.424Z,2.93
2023-03-26T07:11:01.585Z,3.67
2023-03-26T07:17:21.735Z,3.60
2023-03-26T07:23:36.197Z,3.35
2023-03-26T07:30:18.193Z,5.35
2023-03-26T07:36:47.587Z,4.33
2023-03-26T07:43:35.861Z,6.63
2023-03-26T07:49:43.412Z,5.47
2023-03-26T07:56:05.904Z,6.20
2023-03-26T08:02:53.007Z,5.68
2023-03-26T08:09:38.335Z,5.77
2023-03-26T08:16:11.613Z,7.70
2023-03-26T08:22:16.797Z,7.40
2023-03-26T08:28:24.514Z,8.05
2023-03-26T08:34:25.912Z,9.98
2023-03-26T08:40:39.680Z,8.13
2023-03-26T08:46:53.302Z,8.90
2023-03-26T08:53:11.066Z,8.33
2023-03-26T08:59:32.464Z,7.53
2023-03-26T09:05:43.844Z,9.88
2023-03-26T09:11:48.111Z,6.77
2023-03-26T09:18:02.940Z,12.10
2023-03-26T09:24:16.266Z,7.67
2023-03-26T09:30:33.045Z,9.00
2023-03-26T09:36:53.415Z,11.48
2023-03-26T09:43:00.334Z,7.20
2023-03-26T09:49:12.204Z,10.25
2023-03-26T09:55:20.581Z,9.00
2023-03-26T10:01:32.008Z,6.28
2023-03-26T10:07:49.289Z,9.38
2023-03-26T10:14:18.780Z,7.87
2023-03-26T10:20:29.493Z,10.85
2023-03-26T10:27:08.650Z,8.93
2023-03-26T10:33:22.443Z,6.78
2023-03-26T10:39:38.239Z,5.57
2023-03-26T10:45:55.524Z,6.33
2023-03-26T10:51:58.896Z,6.95
2023-03-26T10:58:17.368Z,8.97
2023-03-26T11:04:18.849Z,9.55
2023-03-26T11:10:33.980Z,8.77
2023-03-26T11:16:41.361Z,7.30
2023-03-26T11:22:53.516Z,8.38
2023-03-26T11:29:03.034Z,6.63
2023-03-26T11:35:06.212Z,7.45
2023-03-26T11:41:12.491Z,6.32
2023-03-26T11:47:29.471Z,9.50
2023-03-26T11:53:32.795Z,6.10
2023-03-26T12:00:04.079Z,8.60
2023-03-26T12:06:28.986Z,7.15
2023-03-26T12:12:36.483Z,8.63
2023-03-26T12:18:39.790Z,10.07
2023-03-26T12:24:42.253Z,8.15
2023-03-26T12:30:58.496Z,20.93
2023-03-26T12:37:00.868Z,6.55
2023-03-26T12:44:51.112Z,7.47
2023-03-26T12:49:57.381Z,4.20
2023-03-26T12:56:09.265Z,4.88
2023-03-26T13:02:32.302Z,7.30
2023-03-26T13:08:52.107Z,5.78
2023-03-26T13:14:58.820Z,3.33
2023-03-26T13:21:26.687Z,4.87
2023-03-26T13:27:38.308Z,5.28
2023-03-26T13:33:47.761Z,4.40
2023-03-26T13:40:15.667Z,3.65
2023-03-26T13:46:26.718Z,6.25
2023-03-26T13:52:44.629Z,6.20
2023-03-26T13:58:52.986Z,3.63
2023-03-26T14:04:58.344Z,4.23
2023-03-26T14:11:07.640Z,4.05
2023-03-26T14:17:12.259Z,6.70
2023-03-26T14:23:25.922Z,5.07
2023-03-26T14:29:56.895Z,6.88
2023-03-26T14:36:18.030Z,5.10
2023-03-26T14:42:35.642Z,5.65
2023-03-26T14:48:37.216Z,5.38
2023-03-26T14:54:41.357Z,6.47
2023-03-26T15:01:04.181Z,4.35
2023-03-26T15:07:20.605Z,8.10
2023-03-26T15:13:28.085Z,6.47
2023-03-26T15:19:38.208Z,7.78
2023-03-26T15:25:51.455Z,3.63
2023-03-26T15:32:11.428Z,5.80
2023-03-26T15:38:34.881Z,5.67
2023-03-26T15:44:53.283Z,5.93
2023-03-26T15:51:03.746Z,4.78
2023-03-26T15:57:28.581Z,5.60
2023-03-26T16:03:37.567Z,5.10
2023-03-26T16:09:47.724Z,5.10
2023-03-26T16:15:52.681Z,5.05
2023-03-26T16:22:00.940Z,6.20
2023-03-26T16:28:19.391Z,3.80
2023-03-26T16:34:26.488Z,5.38
2023-03-26T16:40:32.420Z,6.30
2023-03-26T16:46:42.872Z,4.70
2023-03-26T16:52:50.481Z,4.25
2023-03-26T16:58:58.589Z,5.73
2023-03-26T17:05:06.348Z,5.25
2023-03-26T17:11:18.014Z,3.97
2023-03-26T17:17:31.199Z,5.50
2023-03-26T17:23:39.948Z,5.07
2023-03-26T17:30:08.863Z,4.60
2023-03-26T17:36:13.289Z,4.82
2023-03-26T17:42:32.826Z,5.73
2023-03-26T17:48:36.770Z,4.88
2023-03-26T17:54:44.034Z,3.53
2023-03-26T18:00:49.474Z,4.53
2023-03-26T18:07:00.502Z,6.07
2023-03-26T18:13:10.859Z,4.20
2023-03-26T18:19:19.229Z,6.03
2023-03-26T18:25:22.786Z,5.57
2023-03-26T18:31:26.091Z,5.47
2023-03-26T18:37:29.714Z,5.13
2023-03-26T18:43:35.296Z,4.40
2023-03-26T18:49:38.065Z,4.60
2023-03-26T18:55:40.193Z,3.67
2023-03-26T19:01:47.290Z,3.80
2023-03-26T19:07:49.666Z,4.38
2023-03-26T19:13:59.474Z,3.60
2023-03-26T19:20:01.229Z,3.78
2023-03-26T19:26:04.524Z,3.85
2023-03-26T19:32:16.698Z,5.13
2023-03-26T19:38:23.252Z,4.93
2023-03-26T19:44:26.599Z,6.27
2023-03-26T19:50:29.771Z,6.85
2023-03-26T19:56:31.914Z,4.90
2023-03-26T20:02:34.102Z,6.60
2023-03-26T20:08:35.896Z,5.88
2023-03-26T20:14:38.029Z,6.73
2023-03-26T20:20:40.938Z,8.18
2023-03-26T20:26:43.636Z,9.25
2023-03-26T20:32:45.828Z,8.17
2023-03-26T20:38:47.718Z,9.30
2023-03-26T20:44:49.257Z,7.90
2023-03-26T20:50:51.062Z,8.07
2023-03-26T20:56:54.126Z,5.70
2023-03-26T21:02:56.668Z,6.03
2023-03-26T21:08:58.378Z,7.18
2023-03-26T21:15:00.492Z,4.80
2023-03-26T21:21:22.033Z,5.68
2023-03-26T21:27:26.163Z,4.97
2023-03-26T21:33:28.273Z,6.43
2023-03-26T21:39:30.244Z,6.63
2023-03-26T21:45:31.910Z,9.37
2023-03-26T21:51:33.957Z,7.65
2023-03-26T21:58:02.820Z,8.77
2023-03-26T22:04:13.496Z,6.00
2023-03-26T22:10:14.968Z,5.45
2023-03-26T22:16:18.774Z,8.17
2023-03-26T22:22:22.096Z,8.00
2023-03-26T22:28:23.872Z,8.98
2023-03-26T22:34:25.876Z,8.90
2023-03-26T22:40:28.545Z,8.05
2023-03-26T22:46:31.065Z,7.77
2023-03-26T22:52:33.134Z,7.50
2023-03-26T22:58:34.693Z,6.65
2023-03-26T23:04:37.497Z,7.03
2023-03-26T23:10:42.422Z,8.30
2023-03-26T23:16:45.613Z,8.10
2023-03-26T23:22:47.130Z,10.50
2023-03-26T23:28:48.681Z,7.60
2023-03-26T23:34:52.080Z,9.70
2023-03-26T23:40:57.018Z,9.75
2023-03-26T23:47:00.414Z,8.83
2023-03-26T23:53:02.103Z,6.85
2023-03-26T23:59:04.913Z,10.95
